createdAt,value
2022-10-19T00:00:26.109Z,13.85
2022-10-19T00:03:28.058Z,18.60
2022-10-19T00:06:31.335Z,16.13
2022-10-19T00:09:33.285Z,16.17
2022-10-19T00:12:35.366Z,14.35
2022-10-19T00:15:40.596Z,18.70
2022-10-19T00:18:45.739Z,13.45
2022-10-19T00:21:48.042Z,18.27
2022-10-19T00:24:49.993Z,23.40
2022-10-19T00:27:51.950Z,16.73
2022-10-19T00:30:54.408Z,21.52
2022-10-19T00:33:57.467Z,15.50
2022-10-19T00:36:59.392Z,18.27
2022-10-19T00:40:01.314Z,22.35
2022-10-19T00:43:03.365Z,17.20
2022-10-19T00:46:05.304Z,16.80
2022-10-19T00:49:15.172Z,14.27
2022-10-19T00:52:19.121Z,13.70
2022-10-19T00:55:21.173Z,15.20
2022-10-19T00:58:23.144Z,20.25
2022-10-19T01:01:27.031Z,20.42
2022-10-19T01:04:29.347Z,19.83
2022-10-19T01:07:31.810Z,18.33
2022-10-19T01:10:42.944Z,19.40
2022-10-19T01:13:51.057Z,18.45
2022-10-19T01:17:11.637Z,20.63
2022-10-19T01:20:13.517Z,21.25
2022-10-19T01:23:15.476Z,21.63
2022-10-19T01:26:20.298Z,21.58
2022-10-19T01:29:40.892Z,18.75
2022-10-19T01:32:43.045Z,21.10
2022-10-19T01:35:50.828Z,19.55
2022-10-19T01:38:55.805Z,20.57
2022-10-19T01:42:01.383Z,17.70
2022-10-19T01:45:10.746Z,18.05
2022-10-19T01:48:15.412Z,17.55
2022-10-19T01:51:18.804Z,25.00
2022-10-19T01:54:22.084Z,19.40
2022-10-19T01:57:28.983Z,24.15
2022-10-19T02:00:31.638Z,19.17
2022-10-19T02:03:34.685Z,19.25
2022-10-19T02:06:36.915Z,15.50
2022-10-19T02:09:38.837Z,16.33
2022-10-19T02:12:41.723Z,18.20
2022-10-19T02:15:45.728Z,19.85
2022-10-19T02:18:50.180Z,14.65
2022-10-19T02:21:52.437Z,17.02
2022-10-19T02:24:54.424Z,17.45
2022-10-19T02:27:56.548Z,23.38
2022-10-19T02:30:58.677Z,18.67
2022-10-19T02:34:00.615Z,20.70
2022-10-19T02:37:02.660Z,18.45
2022-10-19T02:40:05.211Z,20.33
2022-10-19T02:43:10.868Z,21.17
2022-10-19T02:46:21.820Z,21.52
2022-10-19T02:49:24.163Z,20.83
2022-10-19T02:52:26.135Z,17.23
2022-10-19T02:55:28.873Z,20.42
2022-10-19T02:58:30.829Z,18.08
2022-10-19T03:01:32.731Z,21.40
2022-10-19T03:04:34.743Z,18.65
2022-10-19T03:07:37.013Z,23.65
2022-10-19T03:10:39.134Z,22.77
2022-10-19T03:13:41.675Z,26.77
2022-10-19T03:16:43.687Z,22.17
2022-10-19T03:19:45.732Z,23.58
2022-10-19T03:22:47.726Z,23.53
2022-10-19T03:25:49.661Z,21.05
2022-10-19T03:28:52.021Z,28.77
2022-10-19T03:31:54.038Z,23.20
2022-10-19T03:34:55.978Z,26.33
2022-10-19T03:37:57.903Z,24.27
2022-10-19T03:40:59.816Z,26.08
2022-10-19T03:44:02.060Z,34.80
2022-10-19T03:47:04.001Z,30.85
2022-10-19T03:50:06.187Z,32.63
2022-10-19T03:53:08.396Z,30.37
2022-10-19T03:56:13.073Z,33.15
2022-10-19T03:59:15.861Z,33.63
2022-10-19T04:02:17.787Z,31.17
2022-10-19T04:05:19.772Z,34.42
2022-10-19T04:08:21.724Z,33.17
2022-10-19T04:11:24.882Z,34.65
2022-10-19T04:14:32.122Z,37.72
2022-10-19T04:17:35.700Z,35.40
2022-10-19T04:20:42.104Z,35.22
2022-10-19T04:23:44.011Z,30.67
2022-10-19T04:26:47.491Z,40.90
2022-10-19T04:29:49.403Z,38.75
2022-10-19T04:32:51.351Z,32.90
2022-10-19T04:36:03.155Z,31.52
2022-10-19T04:39:05.672Z,35.85
2022-10-19T04:42:07.630Z,30.85
2022-10-19T04:45:09.795Z,36.22
2022-10-19T04:48:14.545Z,37.13
2022-10-19T04:51:17.643Z,35.97
2022-10-19T04:54:19.604Z,31.10
2022-10-19T04:57:21.493Z,38.90
2022-10-19T05:00:23.520Z,31.80
2022-10-19T05:03:25.446Z,37.10
2022-10-19T05:06:28.015Z,37.60
2022-10-19T05:09:30.006Z,32.92
2022-10-19T05:12:31.933Z,36.47
2022-10-19T05:15:33.891Z,35.78
2022-10-19T05:18:35.855Z,35.03
2022-10-19T05:21:37.835Z,36.83
2022-10-19T05:24:39.743Z,33.87
2022-10-19T05:27:41.798Z,31.38
2022-10-19T05:30:48.795Z,34.17
2022-10-19T05:33:54.471Z,40.65
2022-10-19T05:36:57.119Z,36.10
2022-10-19T05:39:59.546Z,35.75
2022-10-19T05:43:01.841Z,43.47
2022-10-19T05:46:07.677Z,70.57
2022-10-19T05:49:11.492Z,91.45
2022-10-19T05:52:14.026Z,102.47
2022-10-19T05:55:18.435Z,118.93
2022-10-19T05:58:21.834Z,113.73
2022-10-19T06:01:25.978Z,129.93
2022-10-19T06:04:28.797Z,68.40
2022-10-19T06:07:31.255Z,57.65
2022-10-19T06:10:33.596Z,65.37
2022-10-19T06:13:36.284Z,69.13
2022-10-19T06:16:39.283Z,75.65
2022-10-19T06:19:41.545Z,79.37
2022-10-19T06:22:43.720Z,68.15
2022-10-19T06:25:45.786Z,73.05
2022-10-19T06:28:48.472Z,48.78
2022-10-19T06:31:50.680Z,40.07
2022-10-19T06:34:56.384Z,32.63
2022-10-19T06:37:59.077Z,40.13
2022-10-19T06:41:01.399Z,31.48
2022-10-19T06:44:03.520Z,23.10
2022-10-19T06:47:06.144Z,30.58
2022-10-19T06:50:09.254Z,31.77
2022-10-19T06:53:11.710Z,20.40
2022-10-19T06:56:14.019Z,24.63
2022-10-19T06:59:17.674Z,22.33
2022-10-19T07:02:19.792Z,23.52
2022-10-19T07:05:22.294Z,24.57
2022-10-19T07:08:24.948Z,28.25
2022-10-19T07:11:27.042Z,34.65
2022-10-19T07:14:29.166Z,18.20
2022-10-19T07:17:31.504Z,17.52
2022-10-19T07:20:33.815Z,16.50
2022-10-19T07:23:36.772Z,18.30
2022-10-19T07:26:38.893Z,17.50
2022-10-19T07:29:40.942Z,15.75
2022-10-19T07:32:46.808Z,15.05
2022-10-19T07:35:49.319Z,16.67
2022-10-19T07:38:51.842Z,15.68
2022-10-19T07:41:53.870Z,17.10
2022-10-19T07:44:56.259Z,22.20
2022-10-19T07:47:59.752Z,62.67
2022-10-19T07:51:02.777Z,17.10
2022-10-19T07:54:05.471Z,14.63
2022-10-19T07:57:07.753Z,15.55
2022-10-19T08:00:10.330Z,23.27
2022-10-19T08:06:37.631Z,16.00
2022-10-19T08:09:52.703Z,16.80
2022-10-19T08:12:55.839Z,15.27
2022-10-19T08:15:57.802Z,17.88
2022-10-19T08:19:01.361Z,15.90
2022-10-19T08:22:03.614Z,13.27
2022-10-19T08:25:06.034Z,14.88
2022-10-19T08:28:08.403Z,17.40
2022-10-19T08:31:14.844Z,15.98
2022-10-19T08:34:17.322Z,16.83
2022-10-19T08:37:32.594Z,16.10
2022-10-19T08:40:44.768Z,18.27
2022-10-19T08:43:55.450Z,18.13
2022-10-19T08:47:02.546Z,13.48
2022-10-19T08:50:25.589Z,15.25
2022-10-19T08:53:36.432Z,19.03
2022-10-19T08:56:51.783Z,11.27
2022-10-19T09:00:06.315Z,13.75
2022-10-19T09:03:37.913Z,15.90
2022-10-19T09:06:50.161Z,15.57
2022-10-19T09:09:57.264Z,11.67
2022-10-19T09:13:08.445Z,14.20
2022-10-19T09:16:15.279Z,19.02
2022-10-19T09:19:35.317Z,13.40
2022-10-19T09:22:37.693Z,28.00
2022-10-19T09:25:39.879Z,10.70
2022-10-19T09:29:00.777Z,10.38
2022-10-19T09:32:04.581Z,17.35
2022-10-19T09:35:19.233Z,15.65
2022-10-19T09:38:24.171Z,15.43
2022-10-19T09:41:27.172Z,9.67
2022-10-19T09:44:30.341Z,17.30
2022-10-19T09:47:32.759Z,8.73
2022-10-19T09:50:35.025Z,11.20
2022-10-19T09:53:37.238Z,7.65
2022-10-19T09:56:40.734Z,14.53
2022-10-19T09:59:42.938Z,9.85
2022-10-19T10:02:55.019Z,10.18
2022-10-19T10:06:04.709Z,14.00
2022-10-19T10:09:07.052Z,9.93
2022-10-19T10:12:09.742Z,8.43
2022-10-19T10:15:16.232Z,10.77
2022-10-19T10:18:18.850Z,9.63
2022-10-19T10:21:29.870Z,6.35
2022-10-19T10:24:34.424Z,8.63
2022-10-19T10:27:38.273Z,7.97
2022-10-19T10:30:40.926Z,8.65
2022-10-19T10:33:45.469Z,7.13
2022-10-19T10:36:53.587Z,8.20
2022-10-19T10:40:00.277Z,6.15
2022-10-19T10:43:16.799Z,7.83
2022-10-19T10:46:21.282Z,13.13
2022-10-19T10:49:25.612Z,8.07
2022-10-19T10:52:31.678Z,8.38
2022-10-19T10:55:34.401Z,8.05
2022-10-19T10:58:36.366Z,7.50
2022-10-19T11:01:41.193Z,7.95
2022-10-19T11:04:49.953Z,8.50
2022-10-19T11:08:03.492Z,9.50
2022-10-19T11:11:31.687Z,13.05
2022-10-19T11:14:51.219Z,6.23
2022-10-19T11:18:12.820Z,9.23
2022-10-19T11:21:17.758Z,7.80
2022-10-19T11:24:38.305Z,9.05
2022-10-19T11:27:41.055Z,5.78
2022-10-19T11:30:59.790Z,7.87
2022-10-19T11:34:11.145Z,7.45
2022-10-19T11:37:24.308Z,5.90
2022-10-19T11:40:40.281Z,10.35
2022-10-19T11:43:50.683Z,5.68
2022-10-19T11:46:57.536Z,8.07
2022-10-19T11:50:02.417Z,6.57
2022-10-19T11:53:07.617Z,6.07
2022-10-19T11:56:13.539Z,10.77
2022-10-19T11:59:34.929Z,8.82
2022-10-19T12:02:43.052Z,9.70
2022-10-19T12:05:59.784Z,10.18
2022-10-19T12:09:11.656Z,12.18
2022-10-19T12:12:22.764Z,5.57
2022-10-19T12:15:28.794Z,6.78
2022-10-19T12:18:34.531Z,6.40
2022-10-19T12:21:37.990Z,13.50
2022-10-19T12:24:40.077Z,6.18
2022-10-19T12:27:42.755Z,6.80
2022-10-19T12:30:44.834Z,7.53
2022-10-19T12:33:53.290Z,4.63
2022-10-19T12:37:07.061Z,8.85
2022-10-19T12:40:19.619Z,5.82
2022-10-19T12:43:24.364Z,5.28
2022-10-19T12:46:37.540Z,4.57
2022-10-19T12:49:49.317Z,8.47
2022-10-19T12:52:52.955Z,7.18
2022-10-19T12:56:07.177Z,4.40
2022-10-19T12:59:19.937Z,6.43
2022-10-19T13:02:27.327Z,6.90
2022-10-19T13:05:30.670Z,6.27
2022-10-19T13:08:36.242Z,7.57
2022-10-19T13:11:58.289Z,11.40
2022-10-19T13:15:01.137Z,31.30
2022-10-19T13:18:03.053Z,6.47
2022-10-19T13:21:08.482Z,7.00
2022-10-19T13:27:43.786Z,5.65
2022-10-19T13:30:45.778Z,11.38
2022-10-19T13:33:48.917Z,10.80
2022-10-19T13:37:01.017Z,6.13
2022-10-19T13:40:21.974Z,8.63
2022-10-19T13:43:50.412Z,8.75
2022-10-19T13:47:01.315Z,6.75
2022-10-19T13:50:21.587Z,9.80
2022-10-19T13:53:29.464Z,7.90
2022-10-19T13:56:40.490Z,5.95
2022-10-19T13:59:57.596Z,5.28
2022-10-19T14:03:05.391Z,8.18
2022-10-19T14:06:28.366Z,7.45
2022-10-19T14:09:49.332Z,8.00
2022-10-19T14:12:51.677Z,9.73
2022-10-19T14:15:55.200Z,7.75
2022-10-19T14:18:57.311Z,4.63
2022-10-19T14:22:17.536Z,8.65
2022-10-19T14:25:20.966Z,3.43
2022-10-19T14:28:23.503Z,5.82
2022-10-19T14:31:31.833Z,4.18
2022-10-19T14:34:33.810Z,3.80
2022-10-19T14:37:36.805Z,7.93
2022-10-19T14:40:40.083Z,9.93
2022-10-19T14:43:42.033Z,4.55
2022-10-19T14:46:47.287Z,6.57
2022-10-19T14:49:49.667Z,6.72
2022-10-19T14:52:54.261Z,6.00
2022-10-19T14:55:58.431Z,5.33
2022-10-19T14:59:06.112Z,5.72
2022-10-19T15:02:15.381Z,7.80
2022-10-19T15:05:28.246Z,7.22
2022-10-19T15:08:40.233Z,8.00
2022-10-19T15:11:46.750Z,3.63
2022-10-19T15:14:48.870Z,6.18
2022-10-19T15:18:05.727Z,8.10
2022-10-19T15:21:21.201Z,6.35
2022-10-19T15:24:26.080Z,7.72
2022-10-19T15:27:30.845Z,5.87
2022-10-19T15:30:32.926Z,7.35
2022-10-19T15:33:38.655Z,6.40
2022-10-19T15:36:53.356Z,8.65
2022-10-19T15:39:55.400Z,6.57
2022-10-19T15:42:57.379Z,5.67
2022-10-19T15:46:19.530Z,5.30
2022-10-19T15:49:30.387Z,6.28
2022-10-19T15:52:33.258Z,6.93
2022-10-19T15:55:35.267Z,9.80
2022-10-19T15:58:37.210Z,6.57
2022-10-19T16:01:39.233Z,7.40
2022-10-19T16:04:41.245Z,9.88
2022-10-19T16:07:43.238Z,8.38
2022-10-19T16:10:45.196Z,7.63
2022-10-19T16:13:47.383Z,11.73
2022-10-19T16:16:50.920Z,12.95
2022-10-19T16:19:52.949Z,13.65
2022-10-19T16:22:55.041Z,7.80
2022-10-19T16:25:56.977Z,12.88
2022-10-19T16:28:59.290Z,11.27
2022-10-19T16:32:01.456Z,9.98
2022-10-19T16:35:03.631Z,9.55
2022-10-19T16:38:05.563Z,9.85
2022-10-19T16:41:08.733Z,10.93
2022-10-19T16:44:11.641Z,12.87
2022-10-19T16:47:13.980Z,13.50
2022-10-19T16:50:16.000Z,8.98
2022-10-19T16:53:17.935Z,11.25
2022-10-19T16:56:20.183Z,8.63
2022-10-19T16:59:22.159Z,11.47
2022-10-19T17:02:24.142Z,10.55
2022-10-19T17:05:26.169Z,9.30
2022-10-19T17:08:37.165Z,8.25
2022-10-19T17:11:50.188Z,7.03
2022-10-19T17:14:52.140Z,10.20
2022-10-19T17:17:55.590Z,7.55
2022-10-19T17:21:04.523Z,11.38
2022-10-19T17:24:08.174Z,9.90
2022-10-19T17:27:10.095Z,11.63
2022-10-19T17:30:12.052Z,10.00
2022-10-19T17:33:14.061Z,9.77
2022-10-19T17:36:19.001Z,9.60
2022-10-19T17:39:25.629Z,13.18
2022-10-19T17:42:32.273Z,9.23
2022-10-19T17:45:34.294Z,11.73
2022-10-19T17:48:37.652Z,11.48
2022-10-19T17:51:40.099Z,14.13
2022-10-19T17:54:48.809Z,12.60
2022-10-19T17:58:02.582Z,14.47
2022-10-19T18:01:05.000Z,13.27
2022-10-19T18:04:07.069Z,8.43
2022-10-19T18:07:09.040Z,12.68
2022-10-19T18:10:11.268Z,10.57
2022-10-19T18:13:13.231Z,8.73
2022-10-19T18:16:20.040Z,8.57
2022-10-19T18:19:22.011Z,7.82
2022-10-19T18:22:23.957Z,8.07
2022-10-19T18:25:49.250Z,5.50
2022-10-19T18:28:48.851Z,8.48
2022-10-19T18:31:54.943Z,8.20
2022-10-19T18:34:57.032Z,6.87
2022-10-19T18:37:59.096Z,7.65
2022-10-19T18:41:04.986Z,7.88
2022-10-19T18:44:07.670Z,8.13
2022-10-19T18:47:09.612Z,7.47
2022-10-19T18:50:13.080Z,8.57
2022-10-19T18:53:15.133Z,5.70
2022-10-19T18:56:18.462Z,6.13
2022-10-19T18:59:20.473Z,6.70
2022-10-19T19:02:28.592Z,7.18
2022-10-19T19:05:37.277Z,8.75
2022-10-19T19:08:39.670Z,7.53
2022-10-19T19:11:41.896Z,8.30
2022-10-19T19:14:45.199Z,6.88
2022-10-19T19:17:47.251Z,9.65
2022-10-19T19:20:49.187Z,8.53
2022-10-19T19:23:51.856Z,7.60
2022-10-19T19:26:54.801Z,9.27
2022-10-19T19:29:57.779Z,10.90
2022-10-19T19:32:59.788Z,7.45
2022-10-19T19:36:04.369Z,9.48
2022-10-19T19:39:06.351Z,10.25
2022-10-19T19:42:08.360Z,9.43
2022-10-19T19:45:10.340Z,7.40
2022-10-19T19:48:12.275Z,9.32
2022-10-19T19:51:23.201Z,7.20
2022-10-19T19:54:25.167Z,8.13
2022-10-19T19:57:27.132Z,8.25
2022-10-19T20:00:29.099Z,10.77
2022-10-19T20:03:31.043Z,7.90
2022-10-19T20:06:33.749Z,10.20
2022-10-19T20:09:35.688Z,11.98
2022-10-19T20:12:38.236Z,11.35
2022-10-19T20:15:40.212Z,8.67
2022-10-19T20:18:44.460Z,9.63
2022-10-19T20:21:46.393Z,8.23
2022-10-19T20:24:48.332Z,7.35
2022-10-19T20:27:50.272Z,9.97
2022-10-19T20:31:02.375Z,8.25
2022-10-19T20:34:07.309Z,10.13
2022-10-19T20:37:09.307Z,8.15
2022-10-19T20:40:11.378Z,9.97
2022-10-19T20:43:15.231Z,10.23
2022-10-19T20:46:18.667Z,10.65
2022-10-19T20:49:20.615Z,7.72
2022-10-19T20:52:22.593Z,9.63
2022-10-19T20:55:24.535Z,7.57
2022-10-19T20:58:26.519Z,6.75
2022-10-19T21:01:29.930Z,7.70
2022-10-19T21:04:31.942Z,11.32
2022-10-19T21:07:33.896Z,11.90
2022-10-19T21:10:35.868Z,10.23
2022-10-19T21:13:37.849Z,11.67
2022-10-19T21:16:39.785Z,10.13
2022-10-19T21:19:41.732Z,14.73
2022-10-19T21:22:44.195Z,17.17
2022-10-19T21:25:53.409Z,12.53
2022-10-19T21:28:55.609Z,11.75
2022-10-19T21:31:57.567Z,8.20
2022-10-19T21:34:59.512Z,11.35
2022-10-19T21:38:01.440Z,10.63
2022-10-19T21:41:05.041Z,10.57
2022-10-19T21:44:07.025Z,10.43
2022-10-19T21:47:09.024Z,10.43
2022-10-19T21:50:10.957Z,7.00
2022-10-19T21:53:13.011Z,7.90
2022-10-19T21:56:15.648Z,9.05
2022-10-19T21:59:17.902Z,6.17
2022-10-19T22:02:19.836Z,8.05
2022-10-19T22:05:21.990Z,9.68
2022-10-19T22:08:23.968Z,10.48
2022-10-19T22:11:26.236Z,6.97
2022-10-19T22:14:28.179Z,7.13
2022-10-19T22:17:30.175Z,8.10
2022-10-19T22:20:32.181Z,7.87
2022-10-19T22:23:34.196Z,7.28
2022-10-19T22:26:37.363Z,8.32
2022-10-19T22:29:39.324Z,10.27
2022-10-19T22:32:41.263Z,10.85
2022-10-19T22:35:43.178Z,9.05
2022-10-19T22:38:45.134Z,9.30
2022-10-19T22:41:47.095Z,7.22
2022-10-19T22:44:49.033Z,8.70
2022-10-19T22:47:51.009Z,8.70
2022-10-19T22:50:56.773Z,8.30
2022-10-19T22:53:58.718Z,9.55
2022-10-19T22:57:00.662Z,12.13
2022-10-19T23:00:02.629Z,13.05
2022-10-19T23:03:04.700Z,8.32
2022-10-19T23:06:07.484Z,9.57
2022-10-19T23:09:09.388Z,8.00
2022-10-19T23:12:11.384Z,8.57
2022-10-19T23:15:13.348Z,6.30
2022-10-19T23:18:15.308Z,8.82
2022-10-19T23:21:17.340Z,7.37
2022-10-19T23:24:19.280Z,12.65
2022-10-19T23:27:21.238Z,13.35
2022-10-19T23:30:23.312Z,10.55
2022-10-19T23:33:28.059Z,12.85
2022-10-19T23:36:30.017Z,12.60
2022-10-19T23:39:31.940Z,14.38
2022-10-19T23:42:33.875Z,12.03
2022-10-19T23:45:36.851Z,12.18
2022-10-19T23:48:39.327Z,13.98
2022-10-19T23:51:41.276Z,13.37
2022-10-19T23:54:43.238Z,12.52
2022-10-19T23:57:45.135Z,13.68
